sensor_id;sensor_type;location;lat;lon;timestamp;temperature;humidity
18506;DHT22;9382;53.242;10.438;2023-07-29T00:01:58;18.30;99.90
18506;DHT22;9382;53.242;10.438;2023-07-29T00:04:25;18.20;99.90
18506;DHT22;9382;53.242;10.438;2023-07-29T00:06:52;18.20;99.90
18506;DHT22;9382;53.242;10.438;2023-07-29T00:09:19;18.20;99.90
18506;DHT22;9382;53.242;10.438;2023-07-29T00:11:47;18.10;99.90
18506;DHT22;9382;53.242;10.438;2023-07-29T00:14:13;18.10;99.90
18506;DHT22;9382;53.242;10.438;2023-07-29T00:16:40;18.10;99.90
18506;DHT22;9382;53.242;10.438;2023-07-29T00:19:07;18.00;99.90
18506;DHT22;9382;53.242;10.438;2023-07-29T00:21:34;18.00;99.90
18506;DHT22;9382;53.242;10.438;2023-07-29T00:24:01;17.90;99.90
18506;DHT22;9382;53.242;10.438;2023-07-29T00:26:28;17.80;99.90
18506;DHT22;9382;53.242;10.438;2023-07-29T00:28:56;17.80;99.90
18506;DHT22;9382;53.242;10.438;2023-07-29T00:31:23;17.70;99.90
18506;DHT22;9382;53.242;10.438;2023-07-29T00:33:50;17.70;99.90
18506;DHT22;9382;53.242;10.438;2023-07-29T00:36:18;17.70;99.90
18506;DHT22;9382;53.242;10.438;2023-07-29T00:38:45;17.60;99.90
18506;DHT22;9382;53.242;10.438;2023-07-29T00:41:12;17.60;99.90
18506;DHT22;9382;53.242;10.438;2023-07-29T00:43:39;17.50;99.90
18506;DHT22;9382;53.242;10.438;2023-07-29T00:46:08;17.50;99.90
18506;DHT22;9382;53.242;10.438;2023-07-29T00:48:36;17.50;99.90
18506;DHT22;9382;53.242;10.438;2023-07-29T00:51:03;17.50;99.90
18506;DHT22;9382;53.242;10.438;2023-07-29T00:53:29;17.50;99.90
18506;DHT22;9382;53.242;10.438;2023-07-29T00:55:56;17.50;99.90
18506;DHT22;9382;53.242;10.438;2023-07-29T00:58:23;17.50;99.90
18506;DHT22;9382;53.242;10.438;2023-07-29T01:00:50;17.50;99.90
18506;DHT22;9382;53.242;10.438;2023-07-29T01:03:18;17.50;99.90
18506;DHT22;9382;53.242;10.438;2023-07-29T01:05:54;17.50;99.90
18506;DHT22;9382;53.242;10.438;2023-07-29T01:08:31;17.60;99.90
18506;DHT22;9382;53.242;10.438;2023-07-29T01:11:07;17.60;99.90
18506;DHT22;9382;53.242;10.438;2023-07-29T01:13:44;17.60;99.90
18506;DHT22;9382;53.242;10.438;2023-07-29T01:16:17;17.70;99.90
18506;DHT22;9382;53.242;10.438;2023-07-29T01:18:47;17.70;99.90
18506;DHT22;9382;53.242;10.438;2023-07-29T01:21:17;17.70;99.90
18506;DHT22;9382;53.242;10.438;2023-07-29T01:23:45;17.70;99.90
18506;DHT22;9382;53.242;10.438;2023-07-29T01:26:12;17.80;99.90
18506;DHT22;9382;53.242;10.438;2023-07-29T01:28:39;17.80;99.90
18506;DHT22;9382;53.242;10.438;2023-07-29T01:31:12;17.80;99.90
18506;DHT22;9382;53.242;10.438;2023-07-29T01:33:44;17.90;99.90
18506;DHT22;9382;53.242;10.438;2023-07-29T01:36:15;17.90;99.90
18506;DHT22;9382;53.242;10.438;2023-07-29T01:38:48;17.90;99.90
18506;DHT22;9382;53.242;10.438;2023-07-29T01:41:16;17.90;99.90
18506;DHT22;9382;53.242;10.438;2023-07-29T01:43:44;17.90;99.90
18506;DHT22;9382;53.242;10.438;2023-07-29T01:46:12;17.90;99.90
18506;DHT22;9382;53.242;10.438;2023-07-29T01:48:39;17.90;99.90
18506;DHT22;9382;53.242;10.438;2023-07-29T01:51:06;17.90;99.90
18506;DHT22;9382;53.242;10.438;2023-07-29T01:53:33;17.90;99.90
18506;DHT22;9382;53.242;10.438;2023-07-29T01:56:01;17.90;99.90
18506;DHT22;9382;53.242;10.438;2023-07-29T01:58:28;17.90;99.90
18506;DHT22;9382;53.242;10.438;2023-07-29T02:00:55;17.90;99.90
18506;DHT22;9382;53.242;10.438;2023-07-29T02:03:22;17.90;99.90
18506;DHT22;9382;53.242;10.438;2023-07-29T02:05:48;17.80;99.90
18506;DHT22;9382;53.242;10.438;2023-07-29T02:08:15;17.80;99.90
18506;DHT22;9382;53.242;10.438;2023-07-29T02:10:42;17.80;99.90
18506;DHT22;9382;53.242;10.438;2023-07-29T02:13:12;17.80;99.90
18506;DHT22;9382;53.242;10.438;2023-07-29T02:15:38;17.90;99.90
18506;DHT22;9382;53.242;10.438;2023-07-29T02:18:05;17.90;99.90
18506;DHT22;9382;53.242;10.438;2023-07-29T02:20:32;17.80;99.90
18506;DHT22;9382;53.242;10.438;2023-07-29T02:22:59;17.80;99.90
18506;DHT22;9382;53.242;10.438;2023-07-29T02:25:26;17.80;99.90
18506;DHT22;9382;53.242;10.438;2023-07-29T02:27:53;17.70;99.90
18506;DHT22;9382;53.242;10.438;2023-07-29T02:30:21;17.70;99.90
18506;DHT22;9382;53.242;10.438;2023-07-29T02:32:47;17.60;99.90
18506;DHT22;9382;53.242;10.438;2023-07-29T02:35:14;17.60;99.90
18506;DHT22;9382;53.242;10.438;2023-07-29T02:37:41;17.50;99.90
18506;DHT22;9382;53.242;10.438;2023-07-29T02:40:09;17.50;99.90
18506;DHT22;9382;53.242;10.438;2023-07-29T02:42:36;17.50;99.90
18506;DHT22;9382;53.242;10.438;2023-07-29T02:45:03;17.50;99.90
18506;DHT22;9382;53.242;10.438;2023-07-29T02:47:31;17.40;99.90
18506;DHT22;9382;53.242;10.438;2023-07-29T02:49:58;17.40;99.90
18506;DHT22;9382;53.242;10.438;2023-07-29T02:52:25;17.30;99.90
18506;DHT22;9382;53.242;10.438;2023-07-29T02:54:51;17.30;99.90
18506;DHT22;9382;53.242;10.438;2023-07-29T02:57:18;17.30;99.90
18506;DHT22;9382;53.242;10.438;2023-07-29T02:59:45;17.30;99.90
18506;DHT22;9382;53.242;10.438;2023-07-29T03:02:11;17.20;99.90
18506;DHT22;9382;53.242;10.438;2023-07-29T03:04:40;17.20;99.90
18506;DHT22;9382;53.242;10.438;2023-07-29T03:07:06;17.20;99.90
18506;DHT22;9382;53.242;10.438;2023-07-29T03:09:33;17.20;99.90
18506;DHT22;9382;53.242;10.438;2023-07-29T03:12:00;17.10;99.90
18506;DHT22;9382;53.242;10.438;2023-07-29T03:14:26;17.10;99.90
18506;DHT22;9382;53.242;10.438;2023-07-29T03:16:54;17.10;99.90
18506;DHT22;9382;53.242;10.438;2023-07-29T03:19:20;17.10;99.90
18506;DHT22;9382;53.242;10.438;2023-07-29T03:21:49;17.00;99.90
18506;DHT22;9382;53.242;10.438;2023-07-29T03:24:16;17.10;99.90
18506;DHT22;9382;53.242;10.438;2023-07-29T03:26:42;17.10;99.90
18506;DHT22;9382;53.242;10.438;2023-07-29T03:29:09;17.00;99.90
18506;DHT22;9382;53.242;10.438;2023-07-29T03:31:36;17.10;99.90
18506;DHT22;9382;53.242;10.438;2023-07-29T03:34:03;17.20;99.90
18506;DHT22;9382;53.242;10.438;2023-07-29T03:36:30;17.40;99.90
18506;DHT22;9382;53.242;10.438;2023-07-29T03:38:58;17.40;99.90
18506;DHT22;9382;53.242;10.438;2023-07-29T03:41:26;17.40;99.90
18506;DHT22;9382;53.242;10.438;2023-07-29T03:43:52;17.40;99.90
18506;DHT22;9382;53.242;10.438;2023-07-29T03:46:19;17.50;99.90
18506;DHT22;9382;53.242;10.438;2023-07-29T03:48:47;17.50;99.90
18506;DHT22;9382;53.242;10.438;2023-07-29T03:51:14;17.60;99.90
18506;DHT22;9382;53.242;10.438;2023-07-29T03:53:41;17.60;99.90
18506;DHT22;9382;53.242;10.438;2023-07-29T03:56:09;17.60;99.90
18506;DHT22;9382;53.242;10.438;2023-07-29T03:58:36;17.60;99.90
18506;DHT22;9382;53.242;10.438;2023-07-29T04:01:03;17.50;99.90
18506;DHT22;9382;53.242;10.438;2023-07-29T04:03:30;17.50;99.90
18506;DHT22;9382;53.242;10.438;2023-07-29T04:05:56;17.50;99.90
18506;DHT22;9382;53.242;10.438;2023-07-29T04:08:23;17.50;99.90
18506;DHT22;9382;53.242;10.438;2023-07-29T04:10:50;17.50;99.90
18506;DHT22;9382;53.242;10.438;2023-07-29T04:13:18;17.50;99.90
18506;DHT22;9382;53.242;10.438;2023-07-29T04:15:45;17.50;99.90
18506;DHT22;9382;53.242;10.438;2023-07-29T04:18:11;17.50;99.90
18506;DHT22;9382;53.242;10.438;2023-07-29T04:20:38;17.50;99.90
18506;DHT22;9382;53.242;10.438;2023-07-29T04:23:05;17.50;99.90
18506;DHT22;9382;53.242;10.438;2023-07-29T04:25:31;17.40;99.90
18506;DHT22;9382;53.242;10.438;2023-07-29T04:27:58;17.50;99.90
18506;DHT22;9382;53.242;10.438;2023-07-29T04:30:26;17.50;99.90
18506;DHT22;9382;53.242;10.438;2023-07-29T04:32:53;17.50;99.90
18506;DHT22;9382;53.242;10.438;2023-07-29T04:35:20;17.60;99.90
18506;DHT22;9382;53.242;10.438;2023-07-29T04:37:46;17.70;99.90
18506;DHT22;9382;53.242;10.438;2023-07-29T04:40:13;17.70;99.90
18506;DHT22;9382;53.242;10.438;2023-07-29T04:42:40;17.80;99.90
18506;DHT22;9382;53.242;10.438;2023-07-29T04:45:07;17.80;99.90
18506;DHT22;9382;53.242;10.438;2023-07-29T04:47:36;17.90;99.90
18506;DHT22;9382;53.242;10.438;2023-07-29T04:50:03;18.00;99.90
18506;DHT22;9382;53.242;10.438;2023-07-29T04:52:30;18.00;99.90
18506;DHT22;9382;53.242;10.438;2023-07-29T04:54:56;18.10;99.90
18506;DHT22;9382;53.242;10.438;2023-07-29T04:57:23;18.20;99.90
18506;DHT22;9382;53.242;10.438;2023-07-29T04:59:50;18.30;99.90
18506;DHT22;9382;53.242;10.438;2023-07-29T05:02:17;18.40;99.90
18506;DHT22;9382;53.242;10.438;2023-07-29T05:04:45;18.50;99.90
18506;DHT22;9382;53.242;10.438;2023-07-29T05:07:12;18.40;99.90
18506;DHT22;9382;53.242;10.438;2023-07-29T05:09:38;18.40;99.90
18506;DHT22;9382;53.242;10.438;2023-07-29T05:12:06;18.40;99.90
18506;DHT22;9382;53.242;10.438;2023-07-29T05:14:33;18.40;99.90
18506;DHT22;9382;53.242;10.438;2023-07-29T05:16:59;18.50;99.90
18506;DHT22;9382;53.242;10.438;2023-07-29T05:19:26;18.50;99.90
18506;DHT22;9382;53.242;10.438;2023-07-29T05:21:54;18.50;99.90
18506;DHT22;9382;53.242;10.438;2023-07-29T05:24:21;18.60;99.90
18506;DHT22;9382;53.242;10.438;2023-07-29T05:26:48;18.60;99.90
18506;DHT22;9382;53.242;10.438;2023-07-29T05:29:15;18.60;99.90
18506;DHT22;9382;53.242;10.438;2023-07-29T05:31:42;18.70;99.90
18506;DHT22;9382;53.242;10.438;2023-07-29T05:34:08;18.70;99.90
18506;DHT22;9382;53.242;10.438;2023-07-29T05:36:35;18.70;99.90
18506;DHT22;9382;53.242;10.438;2023-07-29T05:39:03;18.80;99.90
18506;DHT22;9382;53.242;10.438;2023-07-29T05:41:30;18.80;99.90
18506;DHT22;9382;53.242;10.438;2023-07-29T05:43:57;18.90;99.90
18506;DHT22;9382;53.242;10.438;2023-07-29T05:46:23;19.00;99.90
18506;DHT22;9382;53.242;10.438;2023-07-29T05:48:50;19.00;99.90
18506;DHT22;9382;53.242;10.438;2023-07-29T05:51:17;19.10;99.90
18506;DHT22;9382;53.242;10.438;2023-07-29T05:53:44;19.30;99.90
18506;DHT22;9382;53.242;10.438;2023-07-29T05:56:12;19.30;99.90
18506;DHT22;9382;53.242;10.438;2023-07-29T05:58:39;19.30;99.90
18506;DHT22;9382;53.242;10.438;2023-07-29T06:01:06;19.40;99.90
18506;DHT22;9382;53.242;10.438;2023-07-29T06:03:32;19.60;99.90
18506;DHT22;9382;53.242;10.438;2023-07-29T06:05:59;19.70;99.90
18506;DHT22;9382;53.242;10.438;2023-07-29T06:08:26;19.70;99.90
18506;DHT22;9382;53.242;10.438;2023-07-29T06:10:54;19.80;99.90
18506;DHT22;9382;53.242;10.438;2023-07-29T06:13:22;19.90;99.90
18506;DHT22;9382;53.242;10.438;2023-07-29T06:15:48;20.00;99.90
18506;DHT22;9382;53.242;10.438;2023-07-29T06:18:15;20.00;99.90
18506;DHT22;9382;53.242;10.438;2023-07-29T06:20:42;20.10;99.90
18506;DHT22;9382;53.242;10.438;2023-07-29T06:23:09;20.20;99.90
18506;DHT22;9382;53.242;10.438;2023-07-29T06:25:36;20.10;99.90
18506;DHT22;9382;53.242;10.438;2023-07-29T06:28:03;20.00;99.90
18506;DHT22;9382;53.242;10.438;2023-07-29T06:30:31;20.00;99.90
18506;DHT22;9382;53.242;10.438;2023-07-29T06:32:58;20.00;99.90
18506;DHT22;9382;53.242;10.438;2023-07-29T06:35:25;20.10;99.90
18506;DHT22;9382;53.242;10.438;2023-07-29T06:37:51;20.20;99.90
18506;DHT22;9382;53.242;10.438;2023-07-29T06:40:18;20.30;99.90
18506;DHT22;9382;53.242;10.438;2023-07-29T06:42:45;20.50;99.90
18506;DHT22;9382;53.242;10.438;2023-07-29T06:45:12;20.70;99.90
18506;DHT22;9382;53.242;10.438;2023-07-29T06:47:40;20.90;99.90
18506;DHT22;9382;53.242;10.438;2023-07-29T06:50:07;21.00;99.90
18506;DHT22;9382;53.242;10.438;2023-07-29T06:52:34;21.20;99.90
18506;DHT22;9382;53.242;10.438;2023-07-29T06:55:02;21.30;99.90
18506;DHT22;9382;53.242;10.438;2023-07-29T06:57:29;21.50;99.90
18506;DHT22;9382;53.242;10.438;2023-07-29T06:59:56;21.60;99.90
18506;DHT22;9382;53.242;10.438;2023-07-29T07:02:22;21.60;99.90
18506;DHT22;9382;53.242;10.438;2023-07-29T07:04:50;21.50;99.90
18506;DHT22;9382;53.242;10.438;2023-07-29T07:07:17;21.50;99.90
18506;DHT22;9382;53.242;10.438;2023-07-29T07:09:44;21.50;99.90
18506;DHT22;9382;53.242;10.438;2023-07-29T07:12:10;21.60;99.90
18506;DHT22;9382;53.242;10.438;2023-07-29T07:14:37;21.80;99.90
18506;DHT22;9382;53.242;10.438;2023-07-29T07:17:05;22.10;99.90
18506;DHT22;9382;53.242;10.438;2023-07-29T07:19:31;22.40;99.90
18506;DHT22;9382;53.242;10.438;2023-07-29T07:22:00;22.50;99.90
18506;DHT22;9382;53.242;10.438;2023-07-29T07:24:26;22.60;99.90
18506;DHT22;9382;53.242;10.438;2023-07-29T07:26:53;22.60;99.90
18506;DHT22;9382;53.242;10.438;2023-07-29T07:29:20;22.50;99.90
18506;DHT22;9382;53.242;10.438;2023-07-29T07:31:50;22.30;99.90
18506;DHT22;9382;53.242;10.438;2023-07-29T07:34:19;22.10;99.90
18506;DHT22;9382;53.242;10.438;2023-07-29T07:36:45;22.10;99.90
18506;DHT22;9382;53.242;10.438;2023-07-29T07:39:14;22.10;99.90
18506;DHT22;9382;53.242;10.438;2023-07-29T07:41:41;22.00;99.90
18506;DHT22;9382;53.242;10.438;2023-07-29T07:44:08;22.10;99.90
18506;DHT22;9382;53.242;10.438;2023-07-29T07:46:34;22.10;99.90
18506;DHT22;9382;53.242;10.438;2023-07-29T07:49:01;22.00;99.90
18506;DHT22;9382;53.242;10.438;2023-07-29T07:51:28;21.90;99.90
18506;DHT22;9382;53.242;10.438;2023-07-29T07:53:55;22.00;99.90
18506;DHT22;9382;53.242;10.438;2023-07-29T07:56:23;22.20;99.90
18506;DHT22;9382;53.242;10.438;2023-07-29T07:58:49;22.30;99.90
18506;DHT22;9382;53.242;10.438;2023-07-29T08:01:16;22.30;99.90
18506;DHT22;9382;53.242;10.438;2023-07-29T08:03:43;22.30;99.90
18506;DHT22;9382;53.242;10.438;2023-07-29T08:06:10;22.30;99.90
18506;DHT22;9382;53.242;10.438;2023-07-29T08:08:37;22.30;99.90
18506;DHT22;9382;53.242;10.438;2023-07-29T08:11:04;22.10;99.90
18506;DHT22;9382;53.242;10.438;2023-07-29T08:13:32;21.90;99.90
18506;DHT22;9382;53.242;10.438;2023-07-29T08:15:59;21.90;99.90
18506;DHT22;9382;53.242;10.438;2023-07-29T08:18:26;21.80;99.90
18506;DHT22;9382;53.242;10.438;2023-07-29T08:20:53;21.90;99.90
18506;DHT22;9382;53.242;10.438;2023-07-29T08:23:21;22.10;99.90
18506;DHT22;9382;53.242;10.438;2023-07-29T08:25:52;22.20;99.90
18506;DHT22;9382;53.242;10.438;2023-07-29T08:28:19;22.40;99.90
18506;DHT22;9382;53.242;10.438;2023-07-29T08:30:48;22.70;99.90
18506;DHT22;9382;53.242;10.438;2023-07-29T08:33:14;22.90;99.90
18506;DHT22;9382;53.242;10.438;2023-07-29T08:35:41;23.10;99.90
18506;DHT22;9382;53.242;10.438;2023-07-29T08:38:08;23.10;99.90
18506;DHT22;9382;53.242;10.438;2023-07-29T08:40:37;23.00;99.90
18506;DHT22;9382;53.242;10.438;2023-07-29T08:43:06;22.90;99.90
18506;DHT22;9382;53.242;10.438;2023-07-29T08:45:35;22.70;99.90
18506;DHT22;9382;53.242;10.438;2023-07-29T08:48:07;22.60;99.90
18506;DHT22;9382;53.242;10.438;2023-07-29T08:50:35;22.40;99.90
18506;DHT22;9382;53.242;10.438;2023-07-29T08:53:04;22.40;99.90
18506;DHT22;9382;53.242;10.438;2023-07-29T08:55:31;22.30;99.90
18506;DHT22;9382;53.242;10.438;2023-07-29T08:57:58;22.30;99.90
18506;DHT22;9382;53.242;10.438;2023-07-29T09:00:26;22.10;99.90
18506;DHT22;9382;53.242;10.438;2023-07-29T09:02:53;21.90;99.90
18506;DHT22;9382;53.242;10.438;2023-07-29T09:05:22;21.70;99.90
18506;DHT22;9382;53.242;10.438;2023-07-29T09:07:50;21.60;99.90
18506;DHT22;9382;53.242;10.438;2023-07-29T09:10:21;21.40;99.90
18506;DHT22;9382;53.242;10.438;2023-07-29T09:12:48;21.30;99.90
18506;DHT22;9382;53.242;10.438;2023-07-29T09:15:26;21.20;99.90
18506;DHT22;9382;53.242;10.438;2023-07-29T09:17:53;21.20;99.90
18506;DHT22;9382;53.242;10.438;2023-07-29T09:20:25;21.10;99.90
18506;DHT22;9382;53.242;10.438;2023-07-29T09:22:53;20.90;99.90
18506;DHT22;9382;53.242;10.438;2023-07-29T09:25:23;20.80;99.90
18506;DHT22;9382;53.242;10.438;2023-07-29T09:27:50;20.60;99.90
18506;DHT22;9382;53.242;10.438;2023-07-29T09:30:17;20.50;99.90
18506;DHT22;9382;53.242;10.438;2023-07-29T09:32:44;20.30;99.90
18506;DHT22;9382;53.242;10.438;2023-07-29T09:35:11;20.00;99.90
18506;DHT22;9382;53.242;10.438;2023-07-29T09:37:40;19.80;99.90
18506;DHT22;9382;53.242;10.438;2023-07-29T09:40:14;19.70;99.90
18506;DHT22;9382;53.242;10.438;2023-07-29T09:42:47;19.60;99.90
18506;DHT22;9382;53.242;10.438;2023-07-29T09:45:20;19.40;99.90
18506;DHT22;9382;53.242;10.438;2023-07-29T09:47:47;19.20;99.90
18506;DHT22;9382;53.242;10.438;2023-07-29T09:50:15;19.20;99.90
18506;DHT22;9382;53.242;10.438;2023-07-29T09:52:44;19.20;99.90
18506;DHT22;9382;53.242;10.438;2023-07-29T09:55:12;19.20;99.90
18506;DHT22;9382;53.242;10.438;2023-07-29T09:57:40;19.30;99.90
18506;DHT22;9382;53.242;10.438;2023-07-29T10:00:09;19.50;99.90
18506;DHT22;9382;53.242;10.438;2023-07-29T10:02:38;19.70;99.90
18506;DHT22;9382;53.242;10.438;2023-07-29T10:05:06;19.90;99.90
18506;DHT22;9382;53.242;10.438;2023-07-29T10:07:34;20.10;99.90
18506;DHT22;9382;53.242;10.438;2023-07-29T10:10:04;20.10;99.90
18506;DHT22;9382;53.242;10.438;2023-07-29T10:12:32;20.10;99.90
18506;DHT22;9382;53.242;10.438;2023-07-29T10:14:59;20.30;99.90
18506;DHT22;9382;53.242;10.438;2023-07-29T10:17:26;20.30;99.90
18506;DHT22;9382;53.242;10.438;2023-07-29T10:19:54;20.40;99.90
18506;DHT22;9382;53.242;10.438;2023-07-29T10:22:25;20.50;99.90
18506;DHT22;9382;53.242;10.438;2023-07-29T10:24:54;20.60;99.90
18506;DHT22;9382;53.242;10.438;2023-07-29T10:27:25;20.60;99.90
18506;DHT22;9382;53.242;10.438;2023-07-29T10:29:55;20.80;99.90
18506;DHT22;9382;53.242;10.438;2023-07-29T10:32:24;21.10;99.90
18506;DHT22;9382;53.242;10.438;2023-07-29T10:34:52;21.20;99.90
18506;DHT22;9382;53.242;10.438;2023-07-29T10:37:19;21.50;99.90
18506;DHT22;9382;53.242;10.438;2023-07-29T10:39:52;21.90;99.90
18506;DHT22;9382;53.242;10.438;2023-07-29T10:42:19;22.10;99.90
18506;DHT22;9382;53.242;10.438;2023-07-29T10:44:49;22.20;99.90
18506;DHT22;9382;53.242;10.438;2023-07-29T10:47:18;22.30;99.90
18506;DHT22;9382;53.242;10.438;2023-07-29T10:49:46;22.40;99.90
18506;DHT22;9382;53.242;10.438;2023-07-29T10:52:14;22.60;99.90
18506;DHT22;9382;53.242;10.438;2023-07-29T10:54:44;22.50;99.90
18506;DHT22;9382;53.242;10.438;2023-07-29T10:57:14;22.40;99.90
18506;DHT22;9382;53.242;10.438;2023-07-29T10:59:41;22.30;99.90
18506;DHT22;9382;53.242;10.438;2023-07-29T11:02:18;22.30;99.90
18506;DHT22;9382;53.242;10.438;2023-07-29T11:04:49;22.10;99.90
18506;DHT22;9382;53.242;10.438;2023-07-29T11:07:21;21.80;99.90
18506;DHT22;9382;53.242;10.438;2023-07-29T11:09:55;21.90;99.90
18506;DHT22;9382;53.242;10.438;2023-07-29T11:12:41;21.90;99.90
18506;DHT22;9382;53.242;10.438;2023-07-29T11:15:18;22.10;99.90
18506;DHT22;9382;53.242;10.438;2023-07-29T11:17:48;22.30;99.90
18506;DHT22;9382;53.242;10.438;2023-07-29T11:20:16;22.50;99.90
18506;DHT22;9382;53.242;10.438;2023-07-29T11:22:43;22.60;99.90
18506;DHT22;9382;53.242;10.438;2023-07-29T11:25:12;22.70;99.90
18506;DHT22;9382;53.242;10.438;2023-07-29T11:27:39;22.80;99.90
18506;DHT22;9382;53.242;10.438;2023-07-29T11:30:08;22.80;99.90
18506;DHT22;9382;53.242;10.438;2023-07-29T11:32:35;22.80;99.90
18506;DHT22;9382;53.242;10.438;2023-07-29T11:35:05;23.00;99.90
18506;DHT22;9382;53.242;10.438;2023-07-29T11:37:33;23.00;99.90
18506;DHT22;9382;53.242;10.438;2023-07-29T11:40:00;23.00;99.90
18506;DHT22;9382;53.242;10.438;2023-07-29T11:42:27;23.10;99.90
18506;DHT22;9382;53.242;10.438;2023-07-29T11:44:56;23.30;99.90
18506;DHT22;9382;53.242;10.438;2023-07-29T11:47:23;23.40;99.90
18506;DHT22;9382;53.242;10.438;2023-07-29T11:49:50;23.30;99.90
18506;DHT22;9382;53.242;10.438;2023-07-29T11:52:19;23.30;99.90
18506;DHT22;9382;53.242;10.438;2023-07-29T11:54:48;23.20;99.90
18506;DHT22;9382;53.242;10.438;2023-07-29T11:57:16;23.20;99.90
18506;DHT22;9382;53.242;10.438;2023-07-29T11:59:44;23.50;99.90
18506;DHT22;9382;53.242;10.438;2023-07-29T12:02:13;24.40;99.90
18506;DHT22;9382;53.242;10.438;2023-07-29T12:04:42;24.80;99.90
18506;DHT22;9382;53.242;10.438;2023-07-29T12:07:09;24.80;99.90
18506;DHT22;9382;53.242;10.438;2023-07-29T12:09:38;24.40;99.90
18506;DHT22;9382;53.242;10.438;2023-07-29T12:12:06;24.10;99.90
18506;DHT22;9382;53.242;10.438;2023-07-29T12:14:33;24.00;99.90
18506;DHT22;9382;53.242;10.438;2023-07-29T12:17:01;23.70;99.90
18506;DHT22;9382;53.242;10.438;2023-07-29T12:19:32;23.60;99.90
18506;DHT22;9382;53.242;10.438;2023-07-29T12:22:00;23.80;99.90
18506;DHT22;9382;53.242;10.438;2023-07-29T12:24:27;24.60;99.90
18506;DHT22;9382;53.242;10.438;2023-07-29T12:26:55;25.80;99.90
18506;DHT22;9382;53.242;10.438;2023-07-29T12:29:22;26.50;99.90
18506;DHT22;9382;53.242;10.438;2023-07-29T12:31:57;26.40;99.90
18506;DHT22;9382;53.242;10.438;2023-07-29T12:34:25;25.90;99.90
18506;DHT22;9382;53.242;10.438;2023-07-29T12:36:53;25.60;99.90
18506;DHT22;9382;53.242;10.438;2023-07-29T12:39:22;25.80;99.90
18506;DHT22;9382;53.242;10.438;2023-07-29T12:41:50;26.90;99.90
18506;DHT22;9382;53.242;10.438;2023-07-29T12:44:18;27.80;99.90
18506;DHT22;9382;53.242;10.438;2023-07-29T12:46:45;28.80;99.90
18506;DHT22;9382;53.242;10.438;2023-07-29T12:49:12;29.50;99.90
18506;DHT22;9382;53.242;10.438;2023-07-29T12:51:39;29.90;99.90
18506;DHT22;9382;53.242;10.438;2023-07-29T12:54:06;30.10;99.90
18506;DHT22;9382;53.242;10.438;2023-07-29T12:56:33;30.70;99.90
18506;DHT22;9382;53.242;10.438;2023-07-29T12:59:00;30.80;99.90
18506;DHT22;9382;53.242;10.438;2023-07-29T13:01:29;30.70;99.90
18506;DHT22;9382;53.242;10.438;2023-07-29T13:03:56;29.70;99.90
18506;DHT22;9382;53.242;10.438;2023-07-29T13:06:22;28.70;99.90
18506;DHT22;9382;53.242;10.438;2023-07-29T13:08:49;27.80;99.90
18506;DHT22;9382;53.242;10.438;2023-07-29T13:11:16;27.60;99.90
18506;DHT22;9382;53.242;10.438;2023-07-29T13:13:43;28.40;99.90
18506;DHT22;9382;53.242;10.438;2023-07-29T13:16:11;29.70;99.90
18506;DHT22;9382;53.242;10.438;2023-07-29T13:18:39;30.10;99.90
18506;DHT22;9382;53.242;10.438;2023-07-29T13:21:06;30.60;99.90
18506;DHT22;9382;53.242;10.438;2023-07-29T13:23:33;31.30;99.90
18506;DHT22;9382;53.242;10.438;2023-07-29T13:26:00;31.90;99.90
18506;DHT22;9382;53.242;10.438;2023-07-29T13:28:27;31.80;99.90
18506;DHT22;9382;53.242;10.438;2023-07-29T13:30:53;31.70;99.90
18506;DHT22;9382;53.242;10.438;2023-07-29T13:33:20;31.30;99.90
18506;DHT22;9382;53.242;10.438;2023-07-29T13:35:48;31.60;99.90
18506;DHT22;9382;53.242;10.438;2023-07-29T13:38:15;32.20;99.90
18506;DHT22;9382;53.242;10.438;2023-07-29T13:40:42;32.00;99.90
18506;DHT22;9382;53.242;10.438;2023-07-29T13:43:09;31.00;99.90
18506;DHT22;9382;53.242;10.438;2023-07-29T13:45:36;29.70;99.90
18506;DHT22;9382;53.242;10.438;2023-07-29T13:48:03;28.30;99.90
18506;DHT22;9382;53.242;10.438;2023-07-29T13:50:30;26.80;99.90
18506;DHT22;9382;53.242;10.438;2023-07-29T13:52:58;26.70;99.90
18506;DHT22;9382;53.242;10.438;2023-07-29T13:55:25;27.10;99.90
18506;DHT22;9382;53.242;10.438;2023-07-29T13:57:52;27.50;99.90
18506;DHT22;9382;53.242;10.438;2023-07-29T14:00:20;28.40;99.90
18506;DHT22;9382;53.242;10.438;2023-07-29T14:02:46;29.50;99.90
18506;DHT22;9382;53.242;10.438;2023-07-29T14:05:13;30.80;99.90
18506;DHT22;9382;53.242;10.438;2023-07-29T14:07:40;31.40;99.90
18506;DHT22;9382;53.242;10.438;2023-07-29T14:10:08;31.50;99.90
18506;DHT22;9382;53.242;10.438;2023-07-29T14:12:35;32.40;99.90
18506;DHT22;9382;53.242;10.438;2023-07-29T14:15:03;33.20;99.90
18506;DHT22;9382;53.242;10.438;2023-07-29T14:17:30;33.80;99.90
18506;DHT22;9382;53.242;10.438;2023-07-29T14:19:57;34.60;99.90
18506;DHT22;9382;53.242;10.438;2023-07-29T14:22:24;34.00;99.90
18506;DHT22;9382;53.242;10.438;2023-07-29T14:24:50;31.70;99.90
18506;DHT22;9382;53.242;10.438;2023-07-29T14:27:18;31.00;99.90
18506;DHT22;9382;53.242;10.438;2023-07-29T14:29:45;31.40;99.90
18506;DHT22;9382;53.242;10.438;2023-07-29T14:32:12;32.70;99.90
18506;DHT22;9382;53.242;10.438;2023-07-29T14:34:39;32.90;99.90
18506;DHT22;9382;53.242;10.438;2023-07-29T14:37:05;33.90;99.90
18506;DHT22;9382;53.242;10.438;2023-07-29T14:39:32;35.00;99.90
18506;DHT22;9382;53.242;10.438;2023-07-29T14:41:59;35.30;99.90
18506;DHT22;9382;53.242;10.438;2023-07-29T14:44:27;35.30;99.90
18506;DHT22;9382;53.242;10.438;2023-07-29T14:46:54;35.20;99.60
18506;DHT22;9382;53.242;10.438;2023-07-29T14:49:21;35.20;96.10
18506;DHT22;9382;53.242;10.438;2023-07-29T14:51:48;35.80;96.10
18506;DHT22;9382;53.242;10.438;2023-07-29T14:54:14;35.60;94.40
18506;DHT22;9382;53.242;10.438;2023-07-29T14:56:41;35.40;92.10
18506;DHT22;9382;53.242;10.438;2023-07-29T14:59:08;35.70;93.60
18506;DHT22;9382;53.242;10.438;2023-07-29T15:01:36;35.90;91.80
18506;DHT22;9382;53.242;10.438;2023-07-29T15:04:03;35.60;94.00
18506;DHT22;9382;53.242;10.438;2023-07-29T15:06:30;35.60;88.40
18506;DHT22;9382;53.242;10.438;2023-07-29T15:08:57;35.70;90.30
18506;DHT22;9382;53.242;10.438;2023-07-29T15:11:24;36.00;90.10
18506;DHT22;9382;53.242;10.438;2023-07-29T15:13:50;35.80;90.00
18506;DHT22;9382;53.242;10.438;2023-07-29T15:16:17;36.00;91.70
18506;DHT22;9382;53.242;10.438;2023-07-29T15:18:45;36.30;89.60
18506;DHT22;9382;53.242;10.438;2023-07-29T15:21:12;36.80;90.50
18506;DHT22;9382;53.242;10.438;2023-07-29T15:23:39;37.30;89.20
18506;DHT22;9382;53.242;10.438;2023-07-29T15:26:05;36.90;88.50
18506;DHT22;9382;53.242;10.438;2023-07-29T15:28:32;37.00;83.00
18506;DHT22;9382;53.242;10.438;2023-07-29T15:30:59;37.10;79.70
18506;DHT22;9382;53.242;10.438;2023-07-29T15:33:26;36.50;78.80